createdAt,value
2023-01-07T00:01:33.471Z,2.10
2023-01-07T00:04:01.955Z,1.60
2023-01-07T00:06:31.614Z,1.77
2023-01-07T00:08:58.738Z,1.60
2023-01-07T00:11:35.106Z,1.40
2023-01-07T00:14:03.562Z,1.73
2023-01-07T00:16:32.299Z,1.67
2023-01-07T00:19:00.841Z,1.50
2023-01-07T00:21:28.714Z,1.50
2023-01-07T00:29:26.826Z,1.50
2023-01-07T00:34:46.025Z,1.50
2023-01-07T00:37:12.701Z,2.03
2023-01-07T00:39:41.290Z,1.50
2023-01-07T00:42:17.146Z,1.43
2023-01-07T00:44:43.913Z,1.50
2023-01-07T00:47:10.577Z,1.87
2023-01-07T00:49:37.456Z,1.37
2023-01-07T00:52:04.322Z,1.50
2023-01-07T00:54:31.169Z,1.50
2023-01-07T00:56:58.761Z,1.40
2023-01-07T00:59:25.761Z,1.40
2023-01-07T01:01:52.487Z,1.60
2023-01-07T01:04:19.320Z,1.10
2023-01-07T01:06:46.085Z,1.50
2023-01-07T01:09:12.790Z,1.53
2023-01-07T01:11:40.044Z,1.43
2023-01-07T01:14:06.756Z,1.53
2023-01-07T01:16:33.388Z,1.77
2023-01-07T01:19:00.187Z,1.93
2023-01-07T01:21:27.359Z,1.60
2023-01-07T01:23:54.012Z,1.73
2023-01-07T01:26:21.517Z,1.47
2023-01-07T01:28:48.231Z,1.67
2023-01-07T01:31:20.032Z,4.03
2023-01-07T01:33:54.134Z,1.60
2023-01-07T01:36:21.238Z,3.17
2023-01-07T01:38:48.021Z,1.40
2023-01-07T01:41:15.228Z,1.70
2023-01-07T01:43:44.132Z,1.20
2023-01-07T01:46:15.965Z,1.60
2023-01-07T01:48:52.017Z,1.40
2023-01-07T01:51:22.143Z,1.87
2023-01-07T01:53:49.027Z,1.43
2023-01-07T01:56:25.823Z,1.40
2023-01-07T01:58:58.969Z,1.67
2023-01-07T02:01:26.847Z,1.57
2023-01-07T02:03:54.914Z,1.30
2023-01-07T02:06:25.412Z,1.10
2023-01-07T02:08:53.443Z,1.17
2023-01-07T02:11:30.236Z,1.10
2023-01-07T02:14:02.639Z,1.30
2023-01-07T02:17:04.472Z,1.00
2023-01-07T02:20:01.984Z,1.10
2023-01-07T02:22:49.807Z,1.03
2023-01-07T02:25:31.456Z,1.17
2023-01-07T02:28:29.975Z,1.10
2023-01-07T02:31:34.099Z,1.03
2023-01-07T02:34:13.264Z,0.90
2023-01-07T02:36:46.731Z,1.00
2023-01-07T02:39:41.586Z,0.87
2023-01-07T02:42:17.727Z,1.10
2023-01-07T02:45:02.302Z,1.50
2023-01-07T02:47:31.878Z,1.00
2023-01-07T02:50:00.431Z,1.37
2023-01-07T02:52:30.131Z,0.90
2023-01-07T02:55:02.749Z,1.20
2023-01-07T02:57:51.591Z,2.30
2023-01-07T03:00:41.327Z,0.90
2023-01-07T03:03:26.892Z,1.10
2023-01-07T03:06:46.900Z,1.30
2023-01-07T03:09:31.958Z,1.43
2023-01-07T03:12:19.808Z,1.20
2023-01-07T03:15:08.515Z,1.37
2023-01-07T03:17:42.503Z,1.07
2023-01-07T03:20:11.640Z,1.30
2023-01-07T03:22:41.359Z,2.10
2023-01-07T03:25:09.429Z,1.77
2023-01-07T03:27:36.890Z,0.90
2023-01-07T03:30:09.325Z,1.13
2023-01-07T03:32:42.775Z,1.20
2023-01-07T03:35:10.233Z,1.30
2023-01-07T03:37:38.403Z,1.30
2023-01-07T03:40:07.818Z,1.23
2023-01-07T03:42:34.678Z,1.53
2023-01-07T03:45:01.506Z,1.30
2023-01-07T03:47:31.024Z,1.20
2023-01-07T03:49:57.794Z,1.30
2023-01-07T03:52:24.507Z,1.40
2023-01-07T03:54:51.814Z,1.10
2023-01-07T03:57:18.701Z,1.30
2023-01-07T03:59:45.582Z,1.10
2023-01-07T04:02:12.766Z,1.73
2023-01-07T04:04:39.941Z,1.27
2023-01-07T04:07:07.069Z,1.00
2023-01-07T04:09:33.973Z,1.00
2023-01-07T04:12:00.613Z,0.97
2023-01-07T04:14:27.404Z,1.27
2023-01-07T04:16:54.149Z,1.63
2023-01-07T04:19:21.987Z,0.93
2023-01-07T04:21:48.783Z,1.13
2023-01-07T04:24:15.744Z,0.70
2023-01-07T04:26:42.824Z,1.93
2023-01-07T04:29:11.373Z,1.07
2023-01-07T04:31:38.613Z,1.27
2023-01-07T04:34:05.564Z,1.20
2023-01-07T04:36:32.427Z,1.73
2023-01-07T04:38:59.318Z,1.00
2023-01-07T04:41:26.161Z,1.13
2023-01-07T04:43:53.504Z,1.10
2023-01-07T04:46:20.195Z,1.30
2023-01-07T04:48:47.829Z,1.17
2023-01-07T04:51:14.758Z,1.23
2023-01-07T04:53:41.878Z,1.60
2023-01-07T04:56:08.843Z,1.17
2023-01-07T04:58:35.691Z,1.20
2023-01-07T05:01:04.010Z,1.03
2023-01-07T05:03:34.134Z,1.80
2023-01-07T05:06:01.289Z,1.50
2023-01-07T05:08:28.277Z,1.80
2023-01-07T05:10:55.734Z,1.30
2023-01-07T05:13:23.900Z,1.30
2023-01-07T05:15:51.479Z,1.43
2023-01-07T05:18:19.775Z,1.27
2023-01-07T05:20:47.190Z,1.23
2023-01-07T05:23:14.201Z,1.30
2023-01-07T05:25:42.355Z,1.30
2023-01-07T05:28:09.763Z,1.10
2023-01-07T05:30:38.223Z,1.30
2023-01-07T05:33:06.455Z,1.00
2023-01-07T05:35:35.070Z,1.80
2023-01-07T05:38:02.308Z,1.30
2023-01-07T05:40:29.431Z,1.10
2023-01-07T05:42:56.126Z,1.47
2023-01-07T05:45:22.788Z,1.00
2023-01-07T05:47:49.495Z,0.90
2023-01-07T05:50:16.305Z,0.90
2023-01-07T05:52:43.080Z,1.10
2023-01-07T05:55:12.064Z,1.10
2023-01-07T05:57:39.379Z,1.37
2023-01-07T06:00:06.786Z,1.30
2023-01-07T06:02:38.575Z,1.57
2023-01-07T06:05:05.737Z,1.03
2023-01-07T06:07:32.485Z,1.00
2023-01-07T06:09:59.919Z,1.53
2023-01-07T06:12:27.879Z,1.00
2023-01-07T06:14:54.644Z,1.20
2023-01-07T06:17:21.233Z,1.00
2023-01-07T06:19:47.962Z,1.40
2023-01-07T06:22:15.205Z,1.23
2023-01-07T06:24:41.906Z,2.13
2023-01-07T06:27:10.264Z,1.00
2023-01-07T06:29:37.104Z,1.20
2023-01-07T06:32:04.030Z,0.90
2023-01-07T06:34:30.687Z,1.17
2023-01-07T06:36:57.383Z,1.73
2023-01-07T06:39:24.145Z,1.70
2023-01-07T06:41:50.738Z,1.10
2023-01-07T06:44:17.557Z,1.20
2023-01-07T06:46:44.239Z,1.37
2023-01-07T06:49:11.545Z,0.93
2023-01-07T06:51:38.374Z,1.07
2023-01-07T06:54:05.085Z,0.87
2023-01-07T06:56:32.349Z,0.90
2023-01-07T06:58:59.097Z,1.17
2023-01-07T07:01:25.936Z,1.03
2023-01-07T07:03:52.839Z,1.07
2023-01-07T07:06:19.523Z,1.20
2023-01-07T07:08:46.252Z,1.07
2023-01-07T07:11:12.864Z,1.23
2023-01-07T07:13:39.957Z,0.80
2023-01-07T07:16:07.134Z,0.60
2023-01-07T07:18:33.948Z,1.30
2023-01-07T07:21:00.741Z,0.90
2023-01-07T07:23:27.389Z,0.90
2023-01-07T07:25:53.998Z,1.00
2023-01-07T07:28:20.789Z,0.90
2023-01-07T07:30:48.401Z,1.37
2023-01-07T07:33:16.011Z,1.10
2023-01-07T07:35:42.685Z,1.00
2023-01-07T07:38:09.439Z,1.53
2023-01-07T07:40:36.449Z,2.73
2023-01-07T07:43:10.781Z,2.20
2023-01-07T07:45:40.482Z,1.50
2023-01-07T07:48:12.321Z,1.10
2023-01-07T07:50:39.257Z,0.80
2023-01-07T07:53:05.984Z,0.70
2023-01-07T07:55:32.749Z,0.60
2023-01-07T07:57:59.309Z,0.83
2023-01-07T08:00:26.251Z,0.60
2023-01-07T08:02:52.938Z,0.63
2023-01-07T08:05:19.673Z,0.83
2023-01-07T08:07:46.352Z,1.20
2023-01-07T08:10:13.180Z,0.50
2023-01-07T08:12:39.837Z,0.60
2023-01-07T08:15:08.043Z,0.50
2023-01-07T08:17:35.245Z,0.60
2023-01-07T08:20:02.808Z,0.47
2023-01-07T08:22:29.399Z,0.50
2023-01-07T08:24:56.246Z,0.60
2023-01-07T08:27:22.820Z,0.40
2023-01-07T08:29:49.515Z,0.50
2023-01-07T08:32:16.227Z,0.50
2023-01-07T08:34:43.005Z,0.40
2023-01-07T08:37:09.640Z,0.37
2023-01-07T08:39:36.458Z,0.43
2023-01-07T08:42:03.477Z,1.80
2023-01-07T08:44:30.301Z,2.37
2023-01-07T08:46:56.991Z,0.40
2023-01-07T08:49:23.643Z,0.50
2023-01-07T08:51:50.232Z,0.53
2023-01-07T08:54:17.131Z,0.70
2023-01-07T08:56:43.723Z,0.70
2023-01-07T08:59:10.433Z,0.67
2023-01-07T09:01:37.328Z,0.67
2023-01-07T09:04:04.262Z,1.13
2023-01-07T09:06:30.844Z,0.90
2023-01-07T09:08:57.590Z,0.60
2023-01-07T09:11:24.256Z,0.50
2023-01-07T09:13:50.950Z,0.53
2023-01-07T09:16:17.753Z,1.27
2023-01-07T09:18:44.564Z,0.50
2023-01-07T09:21:11.180Z,0.93
2023-01-07T09:23:37.896Z,0.43
2023-01-07T09:26:04.536Z,0.60
2023-01-07T09:28:31.339Z,0.60
2023-01-07T09:30:58.219Z,0.60
2023-01-07T09:33:24.890Z,0.60
2023-01-07T09:35:51.499Z,0.73
2023-01-07T09:38:18.254Z,0.40
2023-01-07T09:40:45.443Z,0.50
2023-01-07T09:43:14.877Z,0.70
2023-01-07T09:45:48.955Z,0.60
2023-01-07T09:48:41.195Z,0.50
2023-01-07T09:51:23.829Z,0.43
2023-01-07T09:53:52.587Z,0.50
2023-01-07T09:56:27.798Z,0.60
2023-01-07T09:58:56.089Z,0.60
2023-01-07T10:01:50.887Z,0.40
2023-01-07T10:04:54.937Z,0.80
2023-01-07T10:07:33.754Z,0.80
2023-01-07T10:10:08.303Z,0.60
2023-01-07T10:12:53.111Z,0.70
2023-01-07T10:15:59.235Z,0.70
2023-01-07T10:18:50.492Z,0.67
2023-01-07T10:21:25.467Z,0.60
2023-01-07T10:24:22.065Z,0.80
2023-01-07T10:26:52.948Z,0.67
2023-01-07T10:29:30.947Z,1.37
2023-01-07T10:32:04.104Z,0.70
2023-01-07T10:34:38.380Z,0.80
2023-01-07T10:37:33.236Z,0.83
2023-01-07T10:40:12.366Z,0.93
2023-01-07T10:42:47.171Z,0.87
2023-01-07T10:45:38.912Z,0.93
2023-01-07T10:48:27.767Z,1.23
2023-01-07T10:51:45.473Z,1.00
2023-01-07T10:54:17.835Z,0.80
2023-01-07T10:57:02.939Z,0.90
2023-01-07T10:59:30.391Z,0.80
2023-01-07T11:01:59.280Z,0.90
2023-01-07T11:04:26.851Z,0.90
2023-01-07T11:06:59.179Z,0.80
2023-01-07T11:09:31.025Z,1.00
2023-01-07T11:12:36.474Z,1.90
2023-01-07T11:15:08.713Z,0.70
2023-01-07T11:17:40.444Z,1.37
2023-01-07T11:20:07.982Z,0.67
2023-01-07T11:22:38.279Z,1.13
2023-01-07T11:25:41.773Z,0.87
2023-01-07T11:28:18.331Z,0.60
2023-01-07T11:30:55.116Z,0.73
2023-01-07T11:34:02.419Z,0.70
2023-01-07T11:36:15.508Z,0.93
2023-01-07T11:38:42.574Z,1.43
2023-01-07T11:41:26.140Z,1.67
2023-01-07T11:43:54.597Z,0.83
2023-01-07T11:46:25.895Z,0.70
2023-01-07T11:48:55.717Z,0.80
2023-01-07T11:51:24.043Z,0.80
2023-01-07T11:53:50.697Z,1.57
2023-01-07T11:56:20.083Z,0.70
2023-01-07T11:58:52.111Z,0.80
2023-01-07T12:01:21.519Z,1.03
2023-01-07T12:03:54.379Z,1.33
2023-01-07T12:06:26.472Z,1.00
2023-01-07T12:09:04.473Z,0.97
2023-01-07T12:11:38.007Z,1.03
2023-01-07T12:14:18.607Z,1.43
2023-01-07T12:16:47.251Z,1.57
2023-01-07T12:19:16.909Z,1.30
2023-01-07T12:22:04.789Z,0.93
2023-01-07T12:24:58.609Z,0.70
2023-01-07T12:27:47.461Z,1.87
2023-01-07T12:30:37.352Z,0.80
2023-01-07T12:33:10.186Z,0.90
2023-01-07T12:35:41.601Z,1.17
2023-01-07T12:38:14.479Z,1.13
2023-01-07T12:40:58.338Z,3.03
2023-01-07T12:43:28.401Z,1.47
2023-01-07T12:45:59.276Z,3.63
2023-01-07T12:48:40.721Z,3.33
2023-01-07T12:51:36.554Z,1.00
2023-01-07T12:54:21.586Z,1.33
2023-01-07T12:56:55.409Z,1.97
2023-01-07T12:59:45.660Z,0.70
2023-01-07T13:02:19.216Z,1.10
2023-01-07T13:05:04.641Z,0.77
2023-01-07T13:07:53.091Z,1.17
2023-01-07T13:10:26.059Z,0.87
2023-01-07T13:13:07.619Z,0.83
2023-01-07T13:15:38.616Z,0.93
2023-01-07T13:18:11.214Z,1.03
2023-01-07T13:20:43.935Z,1.00
2023-01-07T13:23:23.910Z,1.20
2023-01-07T13:26:04.650Z,0.70
2023-01-07T13:28:46.342Z,1.20
2023-01-07T13:31:19.081Z,1.60
2023-01-07T13:33:57.975Z,1.13
2023-01-07T13:36:45.723Z,1.50
2023-01-07T13:39:54.034Z,1.20
2023-01-07T13:42:46.645Z,1.33
2023-01-07T13:45:32.199Z,1.50
2023-01-07T13:48:02.102Z,2.00
2023-01-07T13:50:45.208Z,1.50
2023-01-07T13:53:15.103Z,1.60
2023-01-07T13:55:46.591Z,1.50
2023-01-07T13:58:31.685Z,2.03
2023-01-07T14:01:03.134Z,2.67
2023-01-07T14:03:43.629Z,2.10
2023-01-07T14:06:19.579Z,1.40
2023-01-07T14:08:51.035Z,1.53
2023-01-07T14:11:37.569Z,1.97
2023-01-07T14:14:22.931Z,1.60
2023-01-07T14:17:13.465Z,1.63
2023-01-07T14:20:12.399Z,1.73
2023-01-07T14:23:03.552Z,1.80
2023-01-07T14:25:47.025Z,1.70
2023-01-07T14:28:36.876Z,1.70
2023-01-07T14:31:04.625Z,1.60
2023-01-07T14:33:34.118Z,1.83
2023-01-07T14:36:05.529Z,1.70
2023-01-07T14:38:32.292Z,3.00
2023-01-07T14:41:09.725Z,1.77
2023-01-07T14:43:42.639Z,1.83
2023-01-07T14:46:30.355Z,1.40
2023-01-07T14:48:59.940Z,1.63
2023-01-07T14:52:20.557Z,1.93
2023-01-07T14:55:02.475Z,1.57
2023-01-07T14:58:13.996Z,1.60
2023-01-07T15:00:55.596Z,1.70
2023-01-07T15:03:40.550Z,2.77
2023-01-07T15:06:22.556Z,2.20
2023-01-07T15:09:01.005Z,1.80
2023-01-07T15:11:28.560Z,1.80
2023-01-07T15:14:04.282Z,1.67
2023-01-07T15:16:34.285Z,1.90
2023-01-07T15:19:01.063Z,1.80
2023-01-07T15:21:37.178Z,2.10
2023-01-07T15:24:25.407Z,1.97
2023-01-07T15:27:19.629Z,1.70
2023-01-07T15:30:01.385Z,1.70
2023-01-07T15:32:53.584Z,1.60
2023-01-07T15:35:25.358Z,2.10
2023-01-07T15:37:52.210Z,1.87
2023-01-07T15:40:22.761Z,1.60
2023-01-07T15:42:53.042Z,1.40
2023-01-07T15:45:22.923Z,2.03
2023-01-07T15:47:50.565Z,1.50
2023-01-07T15:50:31.729Z,1.40
2023-01-07T15:53:17.223Z,1.37
2023-01-07T15:55:58.453Z,1.27
2023-01-07T15:58:38.937Z,1.33
2023-01-07T16:01:08.024Z,1.70
2023-01-07T16:03:38.923Z,1.73
2023-01-07T16:06:31.492Z,1.40
2023-01-07T16:08:59.027Z,1.50
2023-01-07T16:11:29.256Z,1.47
2023-01-07T16:14:01.844Z,1.60
2023-01-07T16:16:30.861Z,1.60
2023-01-07T16:19:02.704Z,1.60
2023-01-07T16:21:35.435Z,1.37
2023-01-07T16:24:02.688Z,1.60
2023-01-07T16:26:43.497Z,1.83
2023-01-07T16:29:18.645Z,2.10
2023-01-07T16:31:46.407Z,1.77
2023-01-07T16:34:25.311Z,1.77
2023-01-07T16:36:57.340Z,1.57
2023-01-07T16:39:27.999Z,2.20
2023-01-07T16:41:55.239Z,1.87
2023-01-07T16:44:58.245Z,1.97
2023-01-07T16:47:27.560Z,1.73
2023-01-07T16:49:59.203Z,1.93
2023-01-07T16:52:31.547Z,1.60
2023-01-07T16:54:58.285Z,1.57
2023-01-07T16:57:41.252Z,1.80
2023-01-07T17:00:19.286Z,1.43
2023-01-07T17:02:58.196Z,1.40
2023-01-07T17:05:31.064Z,2.40
2023-01-07T17:08:19.173Z,1.50
2023-01-07T17:10:57.555Z,1.60
2023-01-07T17:13:24.606Z,1.40
2023-01-07T17:15:51.249Z,1.27
2023-01-07T17:18:17.974Z,1.40
2023-01-07T17:20:49.995Z,1.40
2023-01-07T17:23:41.323Z,2.50
2023-01-07T17:26:10.786Z,1.70
2023-01-07T17:28:46.671Z,1.30
2023-01-07T17:31:13.795Z,1.90
2023-01-07T17:33:42.342Z,1.20
2023-01-07T17:36:26.180Z,1.23
2023-01-07T17:38:53.242Z,1.70
2023-01-07T17:41:21.845Z,1.50
2023-01-07T17:43:48.520Z,1.50
2023-01-07T17:46:15.195Z,2.20
2023-01-07T17:48:41.979Z,2.00
2023-01-07T17:54:03.166Z,1.57
2023-01-07T17:56:30.066Z,1.50
2023-01-07T17:58:56.701Z,1.43
2023-01-07T18:01:24.052Z,2.03
2023-01-07T18:03:52.458Z,1.40
2023-01-07T18:06:21.983Z,1.50
2023-01-07T18:08:50.192Z,1.27
2023-01-07T18:11:20.722Z,1.50
2023-01-07T18:13:47.437Z,1.90
2023-01-07T18:16:14.952Z,1.43
2023-01-07T18:18:41.778Z,1.63
2023-01-07T18:21:11.447Z,1.60
2023-01-07T18:23:38.335Z,1.97
2023-01-07T18:26:06.235Z,1.40
2023-01-07T18:28:32.905Z,1.40
2023-01-07T18:30:59.541Z,1.47
2023-01-07T18:33:26.397Z,1.33
2023-01-07T18:35:52.977Z,1.60
2023-01-07T18:38:19.652Z,1.63
2023-01-07T18:40:46.476Z,1.73
2023-01-07T18:43:18.107Z,1.67
2023-01-07T18:45:46.334Z,1.60
2023-01-07T18:48:14.494Z,1.50
2023-01-07T18:50:46.997Z,1.30
2023-01-07T18:53:15.774Z,1.63
2023-01-07T18:55:46.338Z,2.13
2023-01-07T18:58:15.370Z,1.60
2023-01-07T19:00:42.438Z,1.77
2023-01-07T19:03:10.628Z,2.20
2023-01-07T19:05:39.342Z,2.30
2023-01-07T19:08:06.167Z,2.20
2023-01-07T19:10:32.875Z,2.40
2023-01-07T19:12:59.506Z,2.77
2023-01-07T19:15:26.144Z,2.60
2023-01-07T19:17:52.893Z,2.67
2023-01-07T19:20:19.461Z,3.57
2023-01-07T19:22:46.301Z,2.70
2023-01-07T19:25:13.825Z,2.63
2023-01-07T19:27:40.617Z,2.73
2023-01-07T19:30:09.427Z,3.53
2023-01-07T19:32:36.081Z,3.13
2023-01-07T19:35:02.713Z,3.33
2023-01-07T19:37:29.478Z,3.23
2023-01-07T19:39:56.072Z,3.67
2023-01-07T19:42:23.027Z,3.40
2023-01-07T19:44:49.849Z,3.17
2023-01-07T19:47:16.484Z,3.20
2023-01-07T19:49:43.071Z,4.07
2023-01-07T19:52:09.746Z,3.27
2023-01-07T19:54:36.328Z,3.17
2023-01-07T19:57:03.064Z,4.30
2023-01-07T19:59:29.735Z,3.97
2023-01-07T20:01:56.587Z,3.47
2023-01-07T20:04:23.312Z,3.60
2023-01-07T20:06:50.112Z,3.07
2023-01-07T20:09:17.135Z,3.50
2023-01-07T20:11:44.554Z,3.73
2023-01-07T20:14:12.927Z,4.33
2023-01-07T20:16:40.777Z,3.60
2023-01-07T20:19:09.934Z,3.87
2023-01-07T20:21:36.851Z,3.13
2023-01-07T20:24:03.682Z,3.40
2023-01-07T20:26:32.151Z,3.73
2023-01-07T20:29:00.057Z,3.20
2023-01-07T20:31:28.696Z,4.13
2023-01-07T20:33:55.491Z,3.40
2023-01-07T20:36:25.777Z,3.83
2023-01-07T20:38:52.533Z,3.87
2023-01-07T20:41:24.589Z,3.67
2023-01-07T20:43:56.228Z,4.23
2023-01-07T20:46:25.224Z,3.73
2023-01-07T20:48:52.357Z,5.90
2023-01-07T20:51:19.402Z,4.07
2023-01-07T20:53:46.734Z,3.70
2023-01-07T20:56:16.383Z,3.60
2023-01-07T20:58:44.718Z,3.27
2023-01-07T21:01:13.614Z,3.70
2023-01-07T21:03:41.286Z,3.47
2023-01-07T21:06:11.607Z,3.43
2023-01-07T21:08:38.917Z,3.43
2023-01-07T21:11:14.594Z,3.60
2023-01-07T21:13:41.475Z,3.40
2023-01-07T21:16:08.652Z,3.33
2023-01-07T21:18:35.471Z,3.30
2023-01-07T21:21:12.055Z,3.20
2023-01-07T21:24:04.326Z,3.50
2023-01-07T21:26:31.024Z,3.50
2023-01-07T21:28:57.640Z,3.40
2023-01-07T21:31:25.879Z,4.33
2023-01-07T21:33:57.155Z,3.43
2023-01-07T21:36:25.930Z,3.17
2023-01-07T21:38:58.007Z,3.20
2023-01-07T21:41:25.559Z,3.40
2023-01-07T21:43:52.373Z,3.00
2023-01-07T21:46:19.259Z,3.13
2023-01-07T21:48:47.161Z,3.00
2023-01-07T21:51:23.366Z,3.13
2023-01-07T21:53:50.813Z,3.17
2023-01-07T21:56:20.603Z,3.10
2023-01-07T21:58:47.743Z,3.00
2023-01-07T22:01:15.578Z,3.70
2023-01-07T22:03:48.098Z,3.07
2023-01-07T22:06:35.101Z,3.40
2023-01-07T22:09:07.846Z,2.87
2023-01-07T22:11:36.181Z,3.60
2023-01-07T22:14:02.828Z,3.10
2023-01-07T22:16:32.270Z,3.27
2023-01-07T22:18:59.121Z,3.10
2023-01-07T22:21:26.051Z,2.60
2023-01-07T22:23:53.224Z,2.97
2023-01-07T22:26:20.663Z,2.93
2023-01-07T22:28:53.999Z,3.00
2023-01-07T22:31:24.174Z,2.83
2023-01-07T22:33:52.802Z,3.30
2023-01-07T22:36:36.524Z,3.50
2023-01-07T22:39:09.356Z,2.90
2023-01-07T22:41:36.715Z,3.77
2023-01-07T22:44:08.869Z,2.97
2023-01-07T22:46:39.073Z,3.20
2023-01-07T22:49:06.802Z,3.13
2023-01-07T22:51:41.723Z,3.17
2023-01-07T22:54:08.922Z,2.97
2023-01-07T22:56:35.951Z,2.90
2023-01-07T22:59:03.186Z,2.97
2023-01-07T23:01:30.474Z,2.93
2023-01-07T23:03:57.661Z,3.27
2023-01-07T23:06:24.556Z,3.10
2023-01-07T23:08:51.203Z,4.10
2023-01-07T23:11:17.854Z,3.60
2023-01-07T23:13:44.678Z,3.63
2023-01-07T23:16:11.472Z,2.70
2023-01-07T23:18:38.141Z,2.73
2023-01-07T23:21:05.097Z,3.30
2023-01-07T23:23:32.273Z,3.57
2023-01-07T23:25:59.907Z,4.63
2023-01-07T23:28:27.001Z,3.67
2023-01-07T23:30:53.583Z,3.43
2023-01-07T23:33:21.425Z,3.67
2023-01-07T23:35:48.541Z,3.50
2023-01-07T23:38:15.306Z,3.47
2023-01-07T23:40:42.468Z,3.40
2023-01-07T23:43:09.297Z,3.80
2023-01-07T23:45:36.188Z,2.90
2023-01-07T23:48:03.095Z,2.93
2023-01-07T23:50:30.793Z,3.17
2023-01-07T23:52:58.639Z,4.57
2023-01-07T23:55:25.238Z,3.00
2023-01-07T23:57:53.253Z,3.43
